sensor_id;sensor_type;location;lat;lon;timestamp;P1;durP1;ratioP1;P2;durP2;ratioP2
15488;SDS011;7846;48.830;9.116;2022-07-03T00:02:30;2.20;;;1.60;;
15488;SDS011;7846;48.830;9.116;2022-07-03T00:05:14;1.60;;;1.50;;
15488;SDS011;7846;48.830;9.116;2022-07-03T00:07:58;1.50;;;1.40;;
15488;SDS011;7846;48.830;9.116;2022-07-03T00:10:42;1.50;;;1.40;;
15488;SDS011;7846;48.830;9.116;2022-07-03T00:13:26;1.60;;;1.50;;
15488;SDS011;7846;48.830;9.116;2022-07-03T00:16:10;2.00;;;1.40;;
15488;SDS011;7846;48.830;9.116;2022-07-03T00:18:54;2.63;;;1.43;;
15488;SDS011;7846;48.830;9.116;2022-07-03T00:21:40;2.57;;;1.40;;
15488;SDS011;7846;48.830;9.116;2022-07-03T00:24:33;1.93;;;1.60;;
15488;SDS011;7846;48.830;9.116;2022-07-03T00:27:24;1.83;;;1.50;;
15488;SDS011;7846;48.830;9.116;2022-07-03T00:30:08;1.60;;;1.50;;
15488;SDS011;7846;48.830;9.116;2022-07-03T00:32:53;2.80;;;1.60;;
15488;SDS011;7846;48.830;9.116;2022-07-03T00:35:37;1.90;;;1.40;;
15488;SDS011;7846;48.830;9.116;2022-07-03T00:38:23;2.17;;;1.63;;
15488;SDS011;7846;48.830;9.116;2022-07-03T00:41:07;2.60;;;1.60;;
15488;SDS011;7846;48.830;9.116;2022-07-03T00:44:07;2.13;;;1.70;;
15488;SDS011;7846;48.830;9.116;2022-07-03T00:46:51;2.40;;;1.50;;
15488;SDS011;7846;48.830;9.116;2022-07-03T00:49:39;3.20;;;1.87;;
15488;SDS011;7846;48.830;9.116;2022-07-03T00:52:32;1.60;;;1.50;;
15488;SDS011;7846;48.830;9.116;2022-07-03T00:55:17;1.80;;;1.70;;
15488;SDS011;7846;48.830;9.116;2022-07-03T00:58:01;2.73;;;1.80;;
15488;SDS011;7846;48.830;9.116;2022-07-03T01:00:46;1.53;;;1.43;;
15488;SDS011;7846;48.830;9.116;2022-07-03T01:03:34;1.60;;;1.50;;
15488;SDS011;7846;48.830;9.116;2022-07-03T01:06:24;1.80;;;1.70;;
15488;SDS011;7846;48.830;9.116;2022-07-03T01:09:14;1.70;;;1.60;;
15488;SDS011;7846;48.830;9.116;2022-07-03T01:12:02;1.80;;;1.70;;
15488;SDS011;7846;48.830;9.116;2022-07-03T01:18:13;2.50;;;1.50;;
15488;SDS011;7846;48.830;9.116;2022-07-03T01:30:52;2.07;;;1.87;;
15488;SDS011;7846;48.830;9.116;2022-07-03T01:33:37;1.90;;;1.70;;
15488;SDS011;7846;48.830;9.116;2022-07-03T01:36:23;2.40;;;2.20;;
15488;SDS011;7846;48.830;9.116;2022-07-03T01:39:09;1.93;;;1.83;;
15488;SDS011;7846;48.830;9.116;2022-07-03T01:41:55;1.87;;;1.77;;
15488;SDS011;7846;48.830;9.116;2022-07-03T01:44:44;1.90;;;1.80;;
15488;SDS011;7846;48.830;9.116;2022-07-03T01:47:31;1.83;;;1.73;;
15488;SDS011;7846;48.830;9.116;2022-07-03T01:50:18;2.40;;;1.80;;
15488;SDS011;7846;48.830;9.116;2022-07-03T01:53:06;2.20;;;1.93;;
15488;SDS011;7846;48.830;9.116;2022-07-03T02:07:10;3.70;;;1.90;;
15488;SDS011;7846;48.830;9.116;2022-07-03T02:10:09;2.00;;;1.73;;
15488;SDS011;7846;48.830;9.116;2022-07-03T02:12:59;2.37;;;2.10;;
15488;SDS011;7846;48.830;9.116;2022-07-03T02:15:48;2.53;;;2.10;;
15488;SDS011;7846;48.830;9.116;2022-07-03T02:18:36;2.33;;;2.00;;
15488;SDS011;7846;48.830;9.116;2022-07-03T02:21:27;2.60;;;1.97;;
15488;SDS011;7846;48.830;9.116;2022-07-03T02:27:04;1.97;;;1.83;;
15488;SDS011;7846;48.830;9.116;2022-07-03T02:30:09;2.27;;;2.00;;
15488;SDS011;7846;48.830;9.116;2022-07-03T02:32:55;2.27;;;2.10;;
15488;SDS011;7846;48.830;9.116;2022-07-03T02:35:42;2.70;;;2.17;;
15488;SDS011;7846;48.830;9.116;2022-07-03T02:38:30;3.10;;;2.47;;
15488;SDS011;7846;48.830;9.116;2022-07-03T02:41:20;2.00;;;1.80;;
15488;SDS011;7846;48.830;9.116;2022-07-03T02:44:42;2.30;;;2.10;;
15488;SDS011;7846;48.830;9.116;2022-07-03T02:50:23;2.10;;;1.90;;
15488;SDS011;7846;48.830;9.116;2022-07-03T02:53:15;3.50;;;2.23;;
15488;SDS011;7846;48.830;9.116;2022-07-03T02:56:14;2.70;;;2.10;;
15488;SDS011;7846;48.830;9.116;2022-07-03T02:59:13;4.00;;;2.07;;
15488;SDS011;7846;48.830;9.116;2022-07-03T03:05:21;2.10;;;2.00;;
15488;SDS011;7846;48.830;9.116;2022-07-03T03:11:46;2.03;;;1.93;;
15488;SDS011;7846;48.830;9.116;2022-07-03T03:14:37;2.30;;;2.10;;
15488;SDS011;7846;48.830;9.116;2022-07-03T03:17:24;2.10;;;2.00;;
15488;SDS011;7846;48.830;9.116;2022-07-03T03:20:18;2.57;;;2.27;;
15488;SDS011;7846;48.830;9.116;2022-07-03T03:26:38;2.40;;;2.20;;
15488;SDS011;7846;48.830;9.116;2022-07-03T03:29:23;2.77;;;2.00;;
15488;SDS011;7846;48.830;9.116;2022-07-03T03:32:10;2.83;;;2.10;;
15488;SDS011;7846;48.830;9.116;2022-07-03T03:34:54;2.87;;;2.00;;
15488;SDS011;7846;48.830;9.116;2022-07-03T03:37:39;2.47;;;2.20;;
15488;SDS011;7846;48.830;9.116;2022-07-03T03:40:23;3.00;;;2.00;;
15488;SDS011;7846;48.830;9.116;2022-07-03T03:43:08;2.33;;;2.20;;
15488;SDS011;7846;48.830;9.116;2022-07-03T03:45:53;2.40;;;2.20;;
15488;SDS011;7846;48.830;9.116;2022-07-03T03:48:37;2.50;;;2.30;;
15488;SDS011;7846;48.830;9.116;2022-07-03T03:51:22;2.50;;;2.30;;
15488;SDS011;7846;48.830;9.116;2022-07-03T03:54:08;2.97;;;2.40;;
15488;SDS011;7846;48.830;9.116;2022-07-03T03:56:51;2.70;;;2.30;;
15488;SDS011;7846;48.830;9.116;2022-07-03T03:59:37;2.60;;;2.23;;
15488;SDS011;7846;48.830;9.116;2022-07-03T04:02:23;4.63;;;2.50;;
15488;SDS011;7846;48.830;9.116;2022-07-03T04:05:07;2.33;;;2.10;;
15488;SDS011;7846;48.830;9.116;2022-07-03T04:07:56;2.57;;;2.27;;
15488;SDS011;7846;48.830;9.116;2022-07-03T04:10:41;4.03;;;2.37;;
15488;SDS011;7846;48.830;9.116;2022-07-03T04:13:27;4.40;;;2.20;;
15488;SDS011;7846;48.830;9.116;2022-07-03T04:16:14;2.17;;;1.97;;
15488;SDS011;7846;48.830;9.116;2022-07-03T04:18:59;2.10;;;2.00;;
15488;SDS011;7846;48.830;9.116;2022-07-03T04:21:43;2.20;;;2.00;;
15488;SDS011;7846;48.830;9.116;2022-07-03T04:24:27;2.10;;;1.90;;
15488;SDS011;7846;48.830;9.116;2022-07-03T04:27:11;3.27;;;2.10;;
15488;SDS011;7846;48.830;9.116;2022-07-03T04:29:55;2.37;;;1.97;;
15488;SDS011;7846;48.830;9.116;2022-07-03T04:32:42;2.03;;;1.93;;
15488;SDS011;7846;48.830;9.116;2022-07-03T04:35:26;2.13;;;1.80;;
15488;SDS011;7846;48.830;9.116;2022-07-03T04:38:11;1.90;;;1.80;;
15488;SDS011;7846;48.830;9.116;2022-07-03T04:40:55;2.07;;;1.80;;
15488;SDS011;7846;48.830;9.116;2022-07-03T04:43:39;3.23;;;1.60;;
15488;SDS011;7846;48.830;9.116;2022-07-03T04:46:24;2.27;;;1.60;;
15488;SDS011;7846;48.830;9.116;2022-07-03T04:49:08;1.80;;;1.43;;
15488;SDS011;7846;48.830;9.116;2022-07-03T04:51:56;1.77;;;1.67;;
15488;SDS011;7846;48.830;9.116;2022-07-03T04:54:40;1.33;;;1.23;;
15488;SDS011;7846;48.830;9.116;2022-07-03T04:57:25;1.50;;;1.40;;
15488;SDS011;7846;48.830;9.116;2022-07-03T05:00:09;1.50;;;1.40;;
15488;SDS011;7846;48.830;9.116;2022-07-03T05:02:54;2.23;;;1.50;;
15488;SDS011;7846;48.830;9.116;2022-07-03T05:05:41;1.50;;;1.40;;
15488;SDS011;7846;48.830;9.116;2022-07-03T05:08:25;1.40;;;1.30;;
15488;SDS011;7846;48.830;9.116;2022-07-03T05:11:09;1.40;;;1.30;;
15488;SDS011;7846;48.830;9.116;2022-07-03T05:13:54;1.50;;;1.40;;
15488;SDS011;7846;48.830;9.116;2022-07-03T05:16:38;1.70;;;1.20;;
15488;SDS011;7846;48.830;9.116;2022-07-03T05:19:23;1.10;;;1.10;;
15488;SDS011;7846;48.830;9.116;2022-07-03T05:22:08;1.50;;;1.40;;
15488;SDS011;7846;48.830;9.116;2022-07-03T05:24:52;1.43;;;1.33;;
15488;SDS011;7846;48.830;9.116;2022-07-03T05:27:36;1.30;;;1.20;;
15488;SDS011;7846;48.830;9.116;2022-07-03T05:30:21;1.10;;;1.10;;
15488;SDS011;7846;48.830;9.116;2022-07-03T05:33:06;1.53;;;1.43;;
15488;SDS011;7846;48.830;9.116;2022-07-03T05:35:50;2.83;;;1.60;;
15488;SDS011;7846;48.830;9.116;2022-07-03T05:38:36;2.10;;;1.60;;
15488;SDS011;7846;48.830;9.116;2022-07-03T05:41:39;1.70;;;1.60;;
15488;SDS011;7846;48.830;9.116;2022-07-03T05:44:23;1.80;;;1.40;;
15488;SDS011;7846;48.830;9.116;2022-07-03T05:47:07;1.60;;;1.50;;
15488;SDS011;7846;48.830;9.116;2022-07-03T05:50:00;1.23;;;1.23;;
15488;SDS011;7846;48.830;9.116;2022-07-03T05:52:44;1.60;;;1.50;;
15488;SDS011;7846;48.830;9.116;2022-07-03T05:55:28;1.50;;;1.40;;
15488;SDS011;7846;48.830;9.116;2022-07-03T05:58:16;1.57;;;1.47;;
15488;SDS011;7846;48.830;9.116;2022-07-03T06:01:02;2.10;;;1.40;;
15488;SDS011;7846;48.830;9.116;2022-07-03T06:03:47;1.30;;;1.30;;
15488;SDS011;7846;48.830;9.116;2022-07-03T06:06:31;1.47;;;1.37;;
15488;SDS011;7846;48.830;9.116;2022-07-03T06:09:15;1.50;;;1.40;;
15488;SDS011;7846;48.830;9.116;2022-07-03T06:11:59;1.50;;;1.40;;
15488;SDS011;7846;48.830;9.116;2022-07-03T06:14:47;1.80;;;1.30;;
15488;SDS011;7846;48.830;9.116;2022-07-03T06:17:31;1.40;;;1.30;;
15488;SDS011;7846;48.830;9.116;2022-07-03T06:20:20;2.90;;;1.50;;
15488;SDS011;7846;48.830;9.116;2022-07-03T06:23:03;2.60;;;1.30;;
15488;SDS011;7846;48.830;9.116;2022-07-03T06:25:47;4.90;;;1.37;;
15488;SDS011;7846;48.830;9.116;2022-07-03T06:31:07;1.60;;;1.50;;
15488;SDS011;7846;48.830;9.116;2022-07-03T06:33:51;2.20;;;1.40;;
15488;SDS011;7846;48.830;9.116;2022-07-03T06:36:36;1.30;;;1.30;;
15488;SDS011;7846;48.830;9.116;2022-07-03T06:39:21;2.23;;;1.03;;
15488;SDS011;7846;48.830;9.116;2022-07-03T06:42:05;1.27;;;1.17;;
15488;SDS011;7846;48.830;9.116;2022-07-03T06:44:51;1.80;;;1.10;;
15488;SDS011;7846;48.830;9.116;2022-07-03T06:47:39;2.03;;;1.20;;
15488;SDS011;7846;48.830;9.116;2022-07-03T06:50:26;1.77;;;0.90;;
15488;SDS011;7846;48.830;9.116;2022-07-03T06:53:10;1.23;;;0.90;;
15488;SDS011;7846;48.830;9.116;2022-07-03T06:55:58;0.90;;;0.90;;
15488;SDS011;7846;48.830;9.116;2022-07-03T06:58:45;1.00;;;1.00;;
15488;SDS011;7846;48.830;9.116;2022-07-03T07:01:53;1.27;;;0.90;;
15488;SDS011;7846;48.830;9.116;2022-07-03T07:04:37;0.90;;;0.90;;
15488;SDS011;7846;48.830;9.116;2022-07-03T07:07:21;0.70;;;0.70;;
15488;SDS011;7846;48.830;9.116;2022-07-03T07:10:05;0.87;;;0.87;;
15488;SDS011;7846;48.830;9.116;2022-07-03T07:12:50;1.53;;;0.73;;
15488;SDS011;7846;48.830;9.116;2022-07-03T07:15:36;2.07;;;0.80;;
15488;SDS011;7846;48.830;9.116;2022-07-03T07:18:20;0.77;;;0.77;;
15488;SDS011;7846;48.830;9.116;2022-07-03T07:21:04;0.87;;;0.77;;
15488;SDS011;7846;48.830;9.116;2022-07-03T07:23:48;1.60;;;1.00;;
15488;SDS011;7846;48.830;9.116;2022-07-03T07:26:32;0.80;;;0.80;;
15488;SDS011;7846;48.830;9.116;2022-07-03T07:29:16;0.70;;;0.70;;
15488;SDS011;7846;48.830;9.116;2022-07-03T07:32:00;0.93;;;0.90;;
15488;SDS011;7846;48.830;9.116;2022-07-03T07:34:44;0.90;;;0.90;;
15488;SDS011;7846;48.830;9.116;2022-07-03T07:37:28;1.00;;;0.83;;
15488;SDS011;7846;48.830;9.116;2022-07-03T07:44:11;0.80;;;0.80;;
15488;SDS011;7846;48.830;9.116;2022-07-03T07:51:02;0.97;;;0.70;;
15488;SDS011;7846;48.830;9.116;2022-07-03T07:54:51;1.60;;;1.13;;
15488;SDS011;7846;48.830;9.116;2022-07-03T07:57:36;0.70;;;0.70;;
15488;SDS011;7846;48.830;9.116;2022-07-03T08:00:20;0.77;;;0.77;;
15488;SDS011;7846;48.830;9.116;2022-07-03T08:03:06;1.23;;;0.80;;
15488;SDS011;7846;48.830;9.116;2022-07-03T08:06:22;7.20;;;0.77;;
15488;SDS011;7846;48.830;9.116;2022-07-03T08:09:06;2.10;;;0.70;;
15488;SDS011;7846;48.830;9.116;2022-07-03T08:11:51;1.17;;;0.70;;
15488;SDS011;7846;48.830;9.116;2022-07-03T08:14:35;1.67;;;0.77;;
15488;SDS011;7846;48.830;9.116;2022-07-03T08:17:19;1.47;;;0.70;;
15488;SDS011;7846;48.830;9.116;2022-07-03T08:20:03;0.60;;;0.60;;
15488;SDS011;7846;48.830;9.116;2022-07-03T08:22:51;0.63;;;0.63;;
15488;SDS011;7846;48.830;9.116;2022-07-03T08:25:34;0.90;;;0.70;;
15488;SDS011;7846;48.830;9.116;2022-07-03T08:28:19;1.70;;;0.70;;
15488;SDS011;7846;48.830;9.116;2022-07-03T08:31:02;1.53;;;0.80;;
15488;SDS011;7846;48.830;9.116;2022-07-03T08:33:46;0.77;;;0.73;;
15488;SDS011;7846;48.830;9.116;2022-07-03T08:36:30;1.80;;;0.80;;
15488;SDS011;7846;48.830;9.116;2022-07-03T08:39:14;1.17;;;0.77;;
15488;SDS011;7846;48.830;9.116;2022-07-03T08:41:59;1.87;;;0.67;;
15488;SDS011;7846;48.830;9.116;2022-07-03T08:44:43;0.80;;;0.80;;
15488;SDS011;7846;48.830;9.116;2022-07-03T08:47:27;0.80;;;0.80;;
15488;SDS011;7846;48.830;9.116;2022-07-03T08:50:16;1.17;;;0.70;;
15488;SDS011;7846;48.830;9.116;2022-07-03T08:53:01;1.57;;;0.70;;
15488;SDS011;7846;48.830;9.116;2022-07-03T08:55:50;0.90;;;0.67;;
15488;SDS011;7846;48.830;9.116;2022-07-03T08:58:34;2.50;;;0.73;;
15488;SDS011;7846;48.830;9.116;2022-07-03T09:01:18;1.00;;;0.60;;
15488;SDS011;7846;48.830;9.116;2022-07-03T09:04:02;0.47;;;0.47;;
15488;SDS011;7846;48.830;9.116;2022-07-03T09:06:47;1.43;;;0.60;;
15488;SDS011;7846;48.830;9.116;2022-07-03T09:09:31;0.60;;;0.60;;
15488;SDS011;7846;48.830;9.116;2022-07-03T09:12:17;3.03;;;0.70;;
15488;SDS011;7846;48.830;9.116;2022-07-03T09:15:04;0.60;;;0.60;;
15488;SDS011;7846;48.830;9.116;2022-07-03T09:17:57;1.70;;;0.90;;
15488;SDS011;7846;48.830;9.116;2022-07-03T09:20:46;1.40;;;0.70;;
15488;SDS011;7846;48.830;9.116;2022-07-03T09:23:35;2.20;;;0.80;;
15488;SDS011;7846;48.830;9.116;2022-07-03T09:26:21;1.13;;;0.70;;
15488;SDS011;7846;48.830;9.116;2022-07-03T09:29:08;1.60;;;0.83;;
15488;SDS011;7846;48.830;9.116;2022-07-03T09:31:56;1.53;;;0.80;;
15488;SDS011;7846;48.830;9.116;2022-07-03T09:34:40;2.13;;;0.90;;
15488;SDS011;7846;48.830;9.116;2022-07-03T09:37:24;1.60;;;0.80;;
15488;SDS011;7846;48.830;9.116;2022-07-03T09:40:08;0.90;;;0.90;;
15488;SDS011;7846;48.830;9.116;2022-07-03T09:45:48;0.83;;;0.70;;
15488;SDS011;7846;48.830;9.116;2022-07-03T09:48:40;3.13;;;0.83;;
15488;SDS011;7846;48.830;9.116;2022-07-03T09:51:25;0.60;;;0.60;;
15488;SDS011;7846;48.830;9.116;2022-07-03T09:54:12;0.60;;;0.60;;
15488;SDS011;7846;48.830;9.116;2022-07-03T09:56:58;0.77;;;0.77;;
15488;SDS011;7846;48.830;9.116;2022-07-03T09:59:42;1.13;;;0.80;;
15488;SDS011;7846;48.830;9.116;2022-07-03T10:02:27;1.83;;;0.70;;
15488;SDS011;7846;48.830;9.116;2022-07-03T10:05:12;0.70;;;0.70;;
15488;SDS011;7846;48.830;9.116;2022-07-03T10:07:57;0.83;;;0.70;;
15488;SDS011;7846;48.830;9.116;2022-07-03T10:10:46;0.80;;;0.70;;
15488;SDS011;7846;48.830;9.116;2022-07-03T10:13:31;0.63;;;0.63;;
15488;SDS011;7846;48.830;9.116;2022-07-03T10:16:16;1.60;;;0.80;;
15488;SDS011;7846;48.830;9.116;2022-07-03T10:19:03;0.70;;;0.70;;
15488;SDS011;7846;48.830;9.116;2022-07-03T10:21:52;1.50;;;0.70;;
15488;SDS011;7846;48.830;9.116;2022-07-03T10:24:37;0.70;;;0.70;;
15488;SDS011;7846;48.830;9.116;2022-07-03T10:27:25;1.80;;;0.90;;
15488;SDS011;7846;48.830;9.116;2022-07-03T10:30:16;1.00;;;0.70;;
15488;SDS011;7846;48.830;9.116;2022-07-03T10:33:02;1.40;;;0.70;;
15488;SDS011;7846;48.830;9.116;2022-07-03T10:35:50;0.83;;;0.70;;
15488;SDS011;7846;48.830;9.116;2022-07-03T10:38:39;0.90;;;0.80;;
15488;SDS011;7846;48.830;9.116;2022-07-03T10:44:49;0.80;;;0.80;;
15488;SDS011;7846;48.830;9.116;2022-07-03T10:47:44;3.00;;;0.70;;
15488;SDS011;7846;48.830;9.116;2022-07-03T10:50:30;1.30;;;0.73;;
15488;SDS011;7846;48.830;9.116;2022-07-03T10:53:22;1.90;;;0.77;;
15488;SDS011;7846;48.830;9.116;2022-07-03T10:56:07;1.23;;;0.60;;
15488;SDS011;7846;48.830;9.116;2022-07-03T10:58:56;0.80;;;0.80;;
15488;SDS011;7846;48.830;9.116;2022-07-03T11:01:41;1.97;;;0.83;;
15488;SDS011;7846;48.830;9.116;2022-07-03T11:04:27;0.87;;;0.80;;
15488;SDS011;7846;48.830;9.116;2022-07-03T11:10:39;2.27;;;0.90;;
15488;SDS011;7846;48.830;9.116;2022-07-03T11:13:24;0.73;;;0.70;;
15488;SDS011;7846;48.830;9.116;2022-07-03T11:16:16;2.27;;;0.80;;
15488;SDS011;7846;48.830;9.116;2022-07-03T11:19:06;1.03;;;0.70;;
15488;SDS011;7846;48.830;9.116;2022-07-03T11:21:50;1.30;;;0.80;;
15488;SDS011;7846;48.830;9.116;2022-07-03T11:24:44;1.40;;;0.70;;
15488;SDS011;7846;48.830;9.116;2022-07-03T11:27:34;0.80;;;0.80;;
15488;SDS011;7846;48.830;9.116;2022-07-03T11:30:18;1.93;;;0.70;;
15488;SDS011;7846;48.830;9.116;2022-07-03T11:33:10;2.20;;;0.80;;
15488;SDS011;7846;48.830;9.116;2022-07-03T11:35:54;0.70;;;0.70;;
15488;SDS011;7846;48.830;9.116;2022-07-03T11:38:38;0.83;;;0.70;;
15488;SDS011;7846;48.830;9.116;2022-07-03T11:41:22;1.90;;;0.80;;
15488;SDS011;7846;48.830;9.116;2022-07-03T11:44:07;1.53;;;0.80;;
15488;SDS011;7846;48.830;9.116;2022-07-03T11:50:07;1.03;;;0.80;;
15488;SDS011;7846;48.830;9.116;2022-07-03T11:52:51;0.77;;;0.70;;
15488;SDS011;7846;48.830;9.116;2022-07-03T11:55:45;1.10;;;0.80;;
15488;SDS011;7846;48.830;9.116;2022-07-03T11:58:49;0.80;;;0.80;;
15488;SDS011;7846;48.830;9.116;2022-07-03T12:01:38;0.80;;;0.80;;
15488;SDS011;7846;48.830;9.116;2022-07-03T12:04:22;0.70;;;0.70;;
15488;SDS011;7846;48.830;9.116;2022-07-03T12:07:06;0.70;;;0.70;;
15488;SDS011;7846;48.830;9.116;2022-07-03T12:09:53;1.03;;;0.90;;
15488;SDS011;7846;48.830;9.116;2022-07-03T12:12:37;0.63;;;0.60;;
15488;SDS011;7846;48.830;9.116;2022-07-03T12:15:22;0.70;;;0.70;;
15488;SDS011;7846;48.830;9.116;2022-07-03T12:18:06;3.30;;;0.80;;
15488;SDS011;7846;48.830;9.116;2022-07-03T12:20:51;1.73;;;0.63;;
15488;SDS011;7846;48.830;9.116;2022-07-03T12:27:07;1.90;;;0.80;;
15488;SDS011;7846;48.830;9.116;2022-07-03T12:29:52;1.60;;;1.13;;
15488;SDS011;7846;48.830;9.116;2022-07-03T12:32:36;1.30;;;0.70;;
15488;SDS011;7846;48.830;9.116;2022-07-03T12:35:22;2.83;;;0.80;;
15488;SDS011;7846;48.830;9.116;2022-07-03T12:38:06;0.70;;;0.70;;
15488;SDS011;7846;48.830;9.116;2022-07-03T12:43:48;1.63;;;0.70;;
15488;SDS011;7846;48.830;9.116;2022-07-03T12:46:34;1.20;;;0.70;;
15488;SDS011;7846;48.830;9.116;2022-07-03T12:49:19;2.10;;;0.70;;
15488;SDS011;7846;48.830;9.116;2022-07-03T12:52:06;1.00;;;0.70;;
15488;SDS011;7846;48.830;9.116;2022-07-03T12:54:50;1.93;;;0.90;;
15488;SDS011;7846;48.830;9.116;2022-07-03T12:57:34;1.00;;;0.70;;
15488;SDS011;7846;48.830;9.116;2022-07-03T13:00:52;0.80;;;0.80;;
15488;SDS011;7846;48.830;9.116;2022-07-03T13:03:36;1.27;;;0.80;;
15488;SDS011;7846;48.830;9.116;2022-07-03T13:06:23;0.70;;;0.70;;
15488;SDS011;7846;48.830;9.116;2022-07-03T13:09:08;2.03;;;0.70;;
15488;SDS011;7846;48.830;9.116;2022-07-03T13:11:52;1.23;;;0.80;;
15488;SDS011;7846;48.830;9.116;2022-07-03T13:14:36;0.60;;;0.60;;
15488;SDS011;7846;48.830;9.116;2022-07-03T13:17:21;1.93;;;0.77;;
15488;SDS011;7846;48.830;9.116;2022-07-03T13:20:05;0.90;;;0.90;;
15488;SDS011;7846;48.830;9.116;2022-07-03T13:22:54;2.83;;;0.80;;
15488;SDS011;7846;48.830;9.116;2022-07-03T13:25:39;1.10;;;1.00;;
15488;SDS011;7846;48.830;9.116;2022-07-03T13:28:23;0.60;;;0.60;;
15488;SDS011;7846;48.830;9.116;2022-07-03T13:31:07;0.80;;;0.77;;
15488;SDS011;7846;48.830;9.116;2022-07-03T13:33:51;0.70;;;0.70;;
15488;SDS011;7846;48.830;9.116;2022-07-03T13:36:35;0.67;;;0.63;;
15488;SDS011;7846;48.830;9.116;2022-07-03T13:39:19;1.43;;;0.90;;
15488;SDS011;7846;48.830;9.116;2022-07-03T13:42:03;0.80;;;0.70;;
15488;SDS011;7846;48.830;9.116;2022-07-03T13:44:48;1.70;;;0.70;;
15488;SDS011;7846;48.830;9.116;2022-07-03T13:47:34;2.40;;;0.90;;
15488;SDS011;7846;48.830;9.116;2022-07-03T13:50:17;1.37;;;0.80;;
15488;SDS011;7846;48.830;9.116;2022-07-03T13:53:01;1.10;;;0.73;;
15488;SDS011;7846;48.830;9.116;2022-07-03T13:55:45;1.30;;;0.63;;
15488;SDS011;7846;48.830;9.116;2022-07-03T13:58:29;1.07;;;0.80;;
15488;SDS011;7846;48.830;9.116;2022-07-03T14:01:13;0.70;;;0.70;;
15488;SDS011;7846;48.830;9.116;2022-07-03T14:03:58;2.50;;;0.70;;
15488;SDS011;7846;48.830;9.116;2022-07-03T14:06:42;2.10;;;0.70;;
15488;SDS011;7846;48.830;9.116;2022-07-03T14:09:26;2.23;;;0.77;;
15488;SDS011;7846;48.830;9.116;2022-07-03T14:12:10;2.20;;;0.70;;
15488;SDS011;7846;48.830;9.116;2022-07-03T14:14:54;1.00;;;0.83;;
15488;SDS011;7846;48.830;9.116;2022-07-03T14:17:39;1.40;;;0.70;;
15488;SDS011;7846;48.830;9.116;2022-07-03T14:20:23;2.07;;;0.70;;
15488;SDS011;7846;48.830;9.116;2022-07-03T14:23:06;1.07;;;0.80;;
15488;SDS011;7846;48.830;9.116;2022-07-03T14:25:50;1.50;;;0.63;;
15488;SDS011;7846;48.830;9.116;2022-07-03T14:28:34;0.70;;;0.70;;
15488;SDS011;7846;48.830;9.116;2022-07-03T14:31:37;1.90;;;0.60;;
15488;SDS011;7846;48.830;9.116;2022-07-03T14:34:40;1.20;;;0.80;;
15488;SDS011;7846;48.830;9.116;2022-07-03T14:37:25;1.40;;;0.80;;
15488;SDS011;7846;48.830;9.116;2022-07-03T14:40:09;2.93;;;0.80;;
15488;SDS011;7846;48.830;9.116;2022-07-03T14:42:54;0.77;;;0.70;;
15488;SDS011;7846;48.830;9.116;2022-07-03T14:45:40;0.60;;;0.60;;
15488;SDS011;7846;48.830;9.116;2022-07-03T14:48:24;2.00;;;0.70;;
15488;SDS011;7846;48.830;9.116;2022-07-03T14:51:08;1.10;;;0.70;;
15488;SDS011;7846;48.830;9.116;2022-07-03T14:53:53;1.90;;;0.63;;
15488;SDS011;7846;48.830;9.116;2022-07-03T14:56:39;1.53;;;0.70;;
15488;SDS011;7846;48.830;9.116;2022-07-03T14:59:42;0.60;;;0.60;;
15488;SDS011;7846;48.830;9.116;2022-07-03T15:05:39;1.30;;;0.70;;
15488;SDS011;7846;48.830;9.116;2022-07-03T15:11:18;1.50;;;0.70;;
15488;SDS011;7846;48.830;9.116;2022-07-03T15:14:25;0.93;;;0.70;;
15488;SDS011;7846;48.830;9.116;2022-07-03T15:17:11;0.60;;;0.60;;
15488;SDS011;7846;48.830;9.116;2022-07-03T15:19:56;1.40;;;0.70;;
15488;SDS011;7846;48.830;9.116;2022-07-03T15:22:44;1.80;;;0.82;;
15488;SDS011;7846;48.830;9.116;2022-07-03T15:25:30;0.90;;;0.90;;
15488;SDS011;7846;48.830;9.116;2022-07-03T15:28:16;0.70;;;0.70;;
15488;SDS011;7846;48.830;9.116;2022-07-03T15:30:59;0.90;;;0.90;;
15488;SDS011;7846;48.830;9.116;2022-07-03T15:33:44;2.47;;;0.90;;
15488;SDS011;7846;48.830;9.116;2022-07-03T15:36:29;1.00;;;0.70;;
15488;SDS011;7846;48.830;9.116;2022-07-03T15:39:54;1.47;;;0.70;;
15488;SDS011;7846;48.830;9.116;2022-07-03T15:49:07;1.33;;;0.70;;
15488;SDS011;7846;48.830;9.116;2022-07-03T15:52:23;1.17;;;0.70;;
15488;SDS011;7846;48.830;9.116;2022-07-03T15:55:08;0.70;;;0.70;;
15488;SDS011;7846;48.830;9.116;2022-07-03T15:57:53;1.50;;;0.80;;
15488;SDS011;7846;48.830;9.116;2022-07-03T16:00:45;1.63;;;0.70;;
15488;SDS011;7846;48.830;9.116;2022-07-03T16:03:53;0.90;;;0.87;;
15488;SDS011;7846;48.830;9.116;2022-07-03T16:06:52;0.93;;;0.70;;
15488;SDS011;7846;48.830;9.116;2022-07-03T16:09:37;1.27;;;0.70;;
15488;SDS011;7846;48.830;9.116;2022-07-03T16:12:26;0.97;;;0.80;;
15488;SDS011;7846;48.830;9.116;2022-07-03T16:15:12;0.70;;;0.70;;
15488;SDS011;7846;48.830;9.116;2022-07-03T16:17:56;1.33;;;0.80;;
15488;SDS011;7846;48.830;9.116;2022-07-03T16:20:41;0.60;;;0.60;;
15488;SDS011;7846;48.830;9.116;2022-07-03T16:23:26;0.80;;;0.70;;
15488;SDS011;7846;48.830;9.116;2022-07-03T16:26:12;0.60;;;0.60;;
15488;SDS011;7846;48.830;9.116;2022-07-03T16:28:57;1.50;;;0.60;;
15488;SDS011;7846;48.830;9.116;2022-07-03T16:31:41;0.90;;;0.80;;
15488;SDS011;7846;48.830;9.116;2022-07-03T16:34:38;2.10;;;0.70;;
15488;SDS011;7846;48.830;9.116;2022-07-03T16:37:30;1.60;;;0.97;;
15488;SDS011;7846;48.830;9.116;2022-07-03T16:40:19;1.47;;;0.90;;
15488;SDS011;7846;48.830;9.116;2022-07-03T16:43:05;0.90;;;0.90;;
15488;SDS011;7846;48.830;9.116;2022-07-03T16:45:50;1.30;;;1.10;;
15488;SDS011;7846;48.830;9.116;2022-07-03T16:48:35;0.80;;;0.80;;
15488;SDS011;7846;48.830;9.116;2022-07-03T16:51:28;3.07;;;0.93;;
15488;SDS011;7846;48.830;9.116;2022-07-03T16:54:13;1.40;;;0.97;;
15488;SDS011;7846;48.830;9.116;2022-07-03T16:56:58;1.80;;;1.00;;
15488;SDS011;7846;48.830;9.116;2022-07-03T16:59:43;3.90;;;0.90;;
15488;SDS011;7846;48.830;9.116;2022-07-03T17:02:27;1.27;;;0.90;;
15488;SDS011;7846;48.830;9.116;2022-07-03T17:05:13;1.37;;;0.90;;
15488;SDS011;7846;48.830;9.116;2022-07-03T17:07:59;1.70;;;1.00;;
15488;SDS011;7846;48.830;9.116;2022-07-03T17:10:45;0.70;;;0.70;;
15488;SDS011;7846;48.830;9.116;2022-07-03T17:13:29;1.50;;;0.70;;
15488;SDS011;7846;48.830;9.116;2022-07-03T17:16:15;1.47;;;0.80;;
15488;SDS011;7846;48.830;9.116;2022-07-03T17:19:04;1.40;;;0.93;;
15488;SDS011;7846;48.830;9.116;2022-07-03T17:21:55;1.37;;;0.90;;
15488;SDS011;7846;48.830;9.116;2022-07-03T17:24:39;1.73;;;0.87;;
15488;SDS011;7846;48.830;9.116;2022-07-03T17:27:29;3.13;;;1.00;;
15488;SDS011;7846;48.830;9.116;2022-07-03T17:30:15;1.70;;;1.00;;
15488;SDS011;7846;48.830;9.116;2022-07-03T17:33:05;3.30;;;1.00;;
15488;SDS011;7846;48.830;9.116;2022-07-03T17:35:54;2.77;;;0.90;;
15488;SDS011;7846;48.830;9.116;2022-07-03T17:38:51;2.00;;;0.90;;
15488;SDS011;7846;48.830;9.116;2022-07-03T17:41:38;2.70;;;0.80;;
15488;SDS011;7846;48.830;9.116;2022-07-03T17:44:25;1.37;;;1.00;;
15488;SDS011;7846;48.830;9.116;2022-07-03T17:47:11;2.43;;;1.03;;
15488;SDS011;7846;48.830;9.116;2022-07-03T17:49:59;0.87;;;0.87;;
15488;SDS011;7846;48.830;9.116;2022-07-03T17:52:44;3.93;;;0.80;;
15488;SDS011;7846;48.830;9.116;2022-07-03T17:55:31;0.90;;;0.70;;
15488;SDS011;7846;48.830;9.116;2022-07-03T17:58:16;1.43;;;1.00;;
15488;SDS011;7846;48.830;9.116;2022-07-03T18:01:00;0.77;;;0.77;;
15488;SDS011;7846;48.830;9.116;2022-07-03T18:03:44;0.93;;;0.80;;
15488;SDS011;7846;48.830;9.116;2022-07-03T18:09:40;2.07;;;1.10;;
15488;SDS011;7846;48.830;9.116;2022-07-03T18:12:25;2.37;;;1.10;;
15488;SDS011;7846;48.830;9.116;2022-07-03T18:18:13;1.90;;;1.20;;
15488;SDS011;7846;48.830;9.116;2022-07-03T18:20:58;1.40;;;0.90;;
15488;SDS011;7846;48.830;9.116;2022-07-03T18:27:08;0.70;;;0.70;;
15488;SDS011;7846;48.830;9.116;2022-07-03T18:29:54;1.77;;;0.90;;
15488;SDS011;7846;48.830;9.116;2022-07-03T18:32:40;1.17;;;1.00;;
15488;SDS011;7846;48.830;9.116;2022-07-03T18:35:24;1.83;;;1.00;;